Time;durP1;ratioP1;P1;durP2;ratioP2;P2;SDS_P1;SDS_P2;PMS_P1;PMS_P2;Temp;Humidity;BMP_temperature;BMP_pressure;BME280_temperature;BME280_humidity;BME280_pressure;Samples;Min_cycle;Max_cycle;Signal;HPM_P1;HPM_P2
2024/03/11 00:02:00;;;;;;;48.80;29.45;;;8.60;99.90;;;;;;4982675;28;20042;-84
2024/03/11 00:04:26;;;;;;;47.53;28.95;;;8.60;99.90;;;;;;4974070;28;20069;-84
2024/03/11 00:06:52;;;;;;;45.25;29.20;;;8.50;99.90;;;;;;4965595;28;20034;-84
2024/03/11 00:09:28;;;;;;;48.08;30.33;;;8.50;99.90;;;;;;4975604;28;20023;-84
2024/03/11 00:11:59;;;;;;;56.08;33.78;;;8.50;99.90;;;;;;4972735;28;20554;-84
2024/03/11 00:14:28;;;;;;;50.97;31.73;;;8.50;99.90;;;;;;4975528;28;20030;-84
2024/03/11 00:16:55;;;;;;;48.30;30.25;;;8.50;99.90;;;;;;4973993;28;20060;-84
2024/03/11 00:19:21;;;;;;;48.58;30.00;;;8.50;99.90;;;;;;4956471;28;20074;-84
2024/03/11 00:21:47;;;;;;;47.17;29.17;;;8.50;99.90;;;;;;4964809;28;20026;-83
2024/03/11 00:24:14;;;;;;;49.63;30.42;;;8.50;99.90;;;;;;4963463;28;20030;-83
2024/03/11 00:26:40;;;;;;;50.95;31.30;;;8.50;99.90;;;;;;4973274;28;20069;-83
2024/03/11 00:29:05;;;;;;;45.22;29.90;;;8.40;99.90;;;;;;4971746;28;20022;-84
2024/03/11 00:31:32;;;;;;;47.63;29.63;;;8.50;99.90;;;;;;4967889;28;20070;-84
2024/03/11 00:33:58;;;;;;;51.60;32.10;;;8.40;99.90;;;;;;4969672;28;20026;-84
2024/03/11 00:36:24;;;;;;;48.00;30.75;;;8.40;99.90;;;;;;4978337;28;20050;-83
2024/03/11 00:38:50;;;;;;;51.42;30.85;;;8.40;99.90;;;;;;4977445;28;20499;-84
2024/03/11 00:41:15;;;;;;;50.90;30.98;;;8.40;99.90;;;;;;4967327;28;20065;-84
2024/03/11 00:43:43;;;;;;;48.60;31.23;;;8.40;99.90;;;;;;4978344;28;20049;-83
2024/03/11 00:46:09;;;;;;;46.38;29.25;;;8.40;99.90;;;;;;4995839;28;20398;-84
2024/03/11 00:48:38;;;;;;;47.75;30.27;;;8.40;99.90;;;;;;4977320;28;20029;-84
2024/03/11 00:51:04;;;;;;;50.75;30.35;;;8.50;99.90;;;;;;4977982;28;20026;-84
2024/03/11 00:53:30;;;;;;;56.17;31.58;;;8.40;99.90;;;;;;4977564;28;20441;-84
2024/03/11 00:55:56;;;;;;;55.78;33.92;;;8.40;99.90;;;;;;4972203;28;20026;-84
2024/03/11 00:58:23;;;;;;;49.38;31.38;;;8.40;99.90;;;;;;4977654;28;20022;-84
2024/03/11 01:00:50;;;;;;;45.67;29.60;;;8.40;99.90;;;;;;4977583;28;20096;-84
2024/03/11 01:03:16;;;;;;;48.15;31.02;;;8.40;99.90;;;;;;4976043;28;20042;-84
2024/03/11 01:05:43;;;;;;;47.42;29.67;;;8.30;99.90;;;;;;4976394;28;20856;-84
2024/03/11 01:08:09;;;;;;;50.72;30.83;;;8.40;99.90;;;;;;4958455;28;20494;-84
2024/03/11 01:10:35;;;;;;;55.25;32.85;;;8.40;99.90;;;;;;4965603;28;20081;-84
2024/03/11 01:13:00;;;;;;;52.30;31.05;;;8.40;99.90;;;;;;4968822;28;20027;-84
2024/03/11 01:15:26;;;;;;;51.20;31.30;;;8.40;99.90;;;;;;4991160;28;20031;-84
2024/03/11 01:17:51;;;;;;;49.75;30.40;;;8.40;99.90;;;;;;4972664;28;20038;-84
2024/03/11 01:20:17;;;;;;;50.50;31.40;;;8.40;99.90;;;;;;4975521;28;20047;-84
2024/03/11 01:22:42;;;;;;;52.63;33.00;;;8.40;99.90;;;;;;4974971;28;20141;-84
2024/03/11 01:25:09;;;;;;;53.85;32.33;;;8.40;99.90;;;;;;4977215;28;20022;-83
2024/03/11 01:27:35;;;;;;;47.45;30.02;;;8.40;99.90;;;;;;4967630;28;20534;-83
2024/03/11 01:30:01;;;;;;;49.72;30.67;;;8.40;99.90;;;;;;4958011;28;20026;-84
2024/03/11 01:32:30;;;;;;;52.28;32.35;;;8.40;99.90;;;;;;4982522;28;20027;-83
2024/03/11 01:34:57;;;;;;;48.83;31.02;;;8.40;99.90;;;;;;4976445;28;20033;-83
2024/03/11 01:37:22;;;;;;;50.85;31.27;;;8.40;99.90;;;;;;4966164;28;20517;-83
2024/03/11 01:39:51;;;;;;;48.42;29.88;;;8.30;99.90;;;;;;4977406;28;20026;-83
2024/03/11 01:42:17;;;;;;;51.60;31.75;;;8.30;99.90;;;;;;4977052;28;20034;-83
2024/03/11 01:44:45;;;;;;;49.25;31.15;;;8.40;99.90;;;;;;4977087;28;20394;-83
2024/03/11 01:47:12;;;;;;;52.22;31.88;;;8.30;99.90;;;;;;4976776;28;20034;-83
2024/03/11 01:49:41;;;;;;;46.70;29.20;;;8.40;99.90;;;;;;4963944;28;20038;-83
2024/03/11 01:52:10;;;;;;;48.50;30.17;;;8.40;99.90;;;;;;4985351;28;20032;-82
2024/03/11 01:54:38;;;;;;;52.75;31.80;;;8.40;99.90;;;;;;4976391;28;20028;-83
2024/03/11 01:57:06;;;;;;;56.45;33.25;;;8.40;99.90;;;;;;4976268;28;20031;-82
2024/03/11 01:59:34;;;;;;;51.78;32.42;;;8.40;99.90;;;;;;4983390;28;20161;-82
2024/03/11 02:02:10;;;;;;;52.88;32.25;;;8.40;99.90;;;;;;4970281;28;20372;-83
2024/03/11 02:04:37;;;;;;;51.78;31.95;;;8.40;99.90;;;;;;4993229;28;20025;-82
2024/03/11 02:07:03;;;;;;;43.45;29.60;;;8.40;99.90;;;;;;4972658;28;20023;-82
2024/03/11 02:09:29;;;;;;;52.28;31.02;;;8.40;99.90;;;;;;4975138;28;20380;-82
2024/03/11 02:11:55;;;;;;;52.30;31.50;;;8.40;99.90;;;;;;4975173;28;20037;-83
2024/03/11 02:14:21;;;;;;;51.55;32.55;;;8.40;99.90;;;;;;4975631;28;20129;-82
2024/03/11 02:16:47;;;;;;;55.28;32.88;;;8.40;99.90;;;;;;4993672;28;20026;-82
2024/03/11 02:19:17;;;;;;;51.50;31.75;;;8.40;99.90;;;;;;4976012;28;20141;-82
2024/03/11 02:21:46;;;;;;;51.42;31.98;;;8.40;99.90;;;;;;4976076;28;20034;-83
2024/03/11 02:24:16;;;;;;;53.53;33.67;;;8.40;99.90;;;;;;4974399;28;20061;-83
2024/03/11 02:26:45;;;;;;;53.70;32.83;;;8.40;99.90;;;;;;4985865;28;20070;-83
2024/03/11 02:29:11;;;;;;;55.15;33.63;;;8.40;99.90;;;;;;4993322;28;20458;-83
2024/03/11 02:31:37;;;;;;;52.20;31.77;;;8.40;99.90;;;;;;4976050;28;20458;-83
2024/03/11 02:34:03;;;;;;;49.88;30.88;;;8.40;99.90;;;;;;4965752;28;20058;-83
2024/03/11 02:36:28;;;;;;;55.65;34.45;;;8.30;99.90;;;;;;4975341;28;20498;-83
2024/03/11 02:38:54;;;;;;;57.10;34.15;;;8.30;99.90;;;;;;4975958;28;20493;-83
2024/03/11 02:41:20;;;;;;;55.20;33.28;;;8.30;99.90;;;;;;4975410;28;20042;-83
2024/03/11 02:43:45;;;;;;;51.03;32.33;;;8.20;99.90;;;;;;4974903;28;20023;-82
2024/03/11 02:46:11;;;;;;;52.80;32.60;;;8.30;99.90;;;;;;4972022;28;20022;-82
2024/03/11 02:48:37;;;;;;;57.47;35.65;;;8.20;99.90;;;;;;4992302;28;20037;-82
2024/03/11 02:51:04;;;;;;;54.42;33.40;;;8.20;99.90;;;;;;4973149;28;20031;-82
2024/03/11 02:53:30;;;;;;;59.15;35.22;;;8.20;99.90;;;;;;4986838;28;20034;-82
2024/03/11 02:55:56;;;;;;;58.63;34.97;;;8.20;99.90;;;;;;4968199;28;20399;-82
2024/03/11 02:58:24;;;;;;;59.20;35.42;;;8.20;99.90;;;;;;4975299;28;20027;-82
2024/03/11 03:00:49;;;;;;;56.53;34.63;;;8.20;99.90;;;;;;4983775;28;20046;-82
2024/03/11 03:03:17;;;;;;;56.15;34.88;;;8.10;99.90;;;;;;4973771;28;20038;-82
2024/03/11 03:05:42;;;;;;;58.80;35.92;;;8.10;99.90;;;;;;4971513;28;20029;-82
2024/03/11 03:08:08;;;;;;;58.60;34.58;;;8.10;99.90;;;;;;4973929;28;20125;-82
2024/03/11 03:10:33;;;;;;;60.40;35.92;;;8.10;99.90;;;;;;4969195;28;20021;-82
2024/03/11 03:12:59;;;;;;;55.42;34.78;;;8.10;99.90;;;;;;4956273;28;20111;-82
2024/03/11 03:15:25;;;;;;;62.58;35.97;;;8.10;99.90;;;;;;4974346;28;20406;-82
2024/03/11 03:17:50;;;;;;;63.70;37.90;;;8.10;99.90;;;;;;4974875;28;20097;-81
2024/03/11 03:20:18;;;;;;;65.60;37.83;;;8.10;99.90;;;;;;4991833;28;20030;-82
2024/03/11 03:22:44;;;;;;;61.60;35.10;;;8.10;99.90;;;;;;4972965;28;20414;-81
2024/03/11 03:25:09;;;;;;;57.75;35.50;;;8.10;99.90;;;;;;4968991;28;20038;-81
2024/03/11 03:27:35;;;;;;;60.33;35.88;;;8.00;99.90;;;;;;4975043;28;20030;-81
2024/03/11 03:30:01;;;;;;;61.25;36.38;;;8.00;99.90;;;;;;4975130;28;20038;-81
2024/03/11 03:32:27;;;;;;;57.08;35.72;;;8.00;99.90;;;;;;4986012;28;20031;-81
2024/03/11 03:34:53;;;;;;;61.60;36.95;;;8.00;99.90;;;;;;4979792;28;20023;-81
2024/03/11 03:37:18;;;;;;;64.18;37.08;;;8.00;99.90;;;;;;4965697;28;20085;-81
2024/03/11 03:39:44;;;;;;;59.13;36.30;;;8.00;99.90;;;;;;4975489;28;20061;-81
2024/03/11 03:42:09;;;;;;;66.68;38.92;;;7.90;99.90;;;;;;4972367;28;20138;-81
2024/03/11 03:44:36;;;;;;;63.97;37.33;;;7.90;99.90;;;;;;4969671;28;20032;-81
2024/03/11 03:47:02;;;;;;;62.05;36.67;;;8.00;99.90;;;;;;4974818;28;20033;-82
2024/03/11 03:49:27;;;;;;;61.97;37.53;;;7.90;99.90;;;;;;4970394;28;20027;-81
2024/03/11 03:51:53;;;;;;;65.88;38.10;;;8.00;99.90;;;;;;4974517;28;20031;-81
2024/03/11 03:54:19;;;;;;;63.30;37.42;;;7.90;99.90;;;;;;4963228;28;20482;-81
2024/03/11 03:56:45;;;;;;;66.88;37.63;;;7.90;99.90;;;;;;4974967;28;20027;-82
2024/03/11 03:59:11;;;;;;;68.90;38.58;;;7.90;99.90;;;;;;4976191;28;20133;-81
2024/03/11 04:01:37;;;;;;;65.28;38.55;;;8.00;99.90;;;;;;4977783;28;20031;-82
2024/03/11 04:04:03;;;;;;;62.00;36.03;;;8.00;99.90;;;;;;4976824;28;20026;-82
2024/03/11 04:06:32;;;;;;;67.90;39.75;;;8.00;99.90;;;;;;4992187;28;20030;-82
2024/03/11 04:08:57;;;;;;;66.35;38.03;;;7.90;99.90;;;;;;4971519;28;20030;-81
2024/03/11 04:11:23;;;;;;;65.22;37.50;;;7.90;99.90;;;;;;4995829;28;20098;-82
2024/03/11 04:13:49;;;;;;;64.72;38.95;;;7.90;99.90;;;;;;4978294;28;20026;-82
2024/03/11 04:16:16;;;;;;;63.00;36.25;;;7.90;99.90;;;;;;4978361;28;20029;-83
2024/03/11 04:18:42;;;;;;;65.85;37.65;;;7.90;99.90;;;;;;4990942;28;20109;-81
2024/03/11 04:21:08;;;;;;;68.32;38.88;;;7.90;99.90;;;;;;4977405;28;20112;-82
2024/03/11 04:23:34;;;;;;;68.45;39.17;;;7.90;99.90;;;;;;4964547;28;20090;-81
2024/03/11 04:26:02;;;;;;;68.63;38.33;;;7.90;99.90;;;;;;4975792;28;20023;-81
2024/03/11 04:28:28;;;;;;;62.58;37.30;;;7.90;99.90;;;;;;4975926;28;20033;-82
2024/03/11 04:30:55;;;;;;;68.30;41.17;;;7.90;99.90;;;;;;4974197;28;20433;-82
2024/03/11 04:33:22;;;;;;;71.10;39.35;;;7.80;99.90;;;;;;4971929;28;20030;-82
2024/03/11 04:35:49;;;;;;;67.95;38.95;;;7.80;99.90;;;;;;4974856;28;20034;-82
2024/03/11 04:38:15;;;;;;;71.47;39.88;;;7.90;99.90;;;;;;4972942;28;20023;-82
2024/03/11 04:40:47;;;;;;;70.45;39.47;;;7.80;99.90;;;;;;4974987;28;20098;-82
2024/03/11 04:43:13;;;;;;;70.13;39.40;;;7.80;99.90;;;;;;4975771;28;20125;-82
2024/03/11 04:45:39;;;;;;;66.50;37.72;;;7.80;99.90;;;;;;4964692;28;20073;-82
2024/03/11 04:48:07;;;;;;;65.65;38.00;;;7.90;99.90;;;;;;4994690;28;20035;-82
2024/03/11 04:50:34;;;;;;;70.65;39.03;;;7.80;99.90;;;;;;4958659;28;20562;-82
2024/03/11 04:53:04;;;;;;;66.78;38.80;;;7.80;99.90;;;;;;4972575;28;20113;-82
2024/03/11 04:55:30;;;;;;;67.93;39.30;;;7.90;99.90;;;;;;4958312;28;20062;-82
2024/03/11 04:57:57;;;;;;;70.80;41.15;;;7.80;99.90;;;;;;4966517;28;20071;-82
2024/03/11 05:00:27;;;;;;;70.15;40.13;;;7.80;99.90;;;;;;4995128;28;20050;-82
2024/03/11 05:03:03;;;;;;;62.92;36.95;;;7.80;99.90;;;;;;5014758;28;20371;-82
2024/03/11 05:05:35;;;;;;;67.82;39.55;;;7.80;99.90;;;;;;4990034;28;20026;-82
2024/03/11 05:08:01;;;;;;;71.63;39.55;;;7.80;99.90;;;;;;4967111;28;20081;-82
2024/03/11 05:10:27;;;;;;;71.82;40.85;;;7.80;99.90;;;;;;4976452;28;20129;-82
2024/03/11 05:12:53;;;;;;;68.70;38.92;;;7.80;99.90;;;;;;4977942;28;20069;-82
2024/03/11 05:15:18;;;;;;;75.68;40.67;;;7.90;99.90;;;;;;4977586;28;20093;-82
2024/03/11 05:17:44;;;;;;;73.45;40.45;;;7.80;99.90;;;;;;4971124;28;20077;-82
2024/03/11 05:20:14;;;;;;;76.40;40.65;;;7.80;99.90;;;;;;4961556;28;20030;-82
2024/03/11 05:22:43;;;;;;;68.20;39.72;;;7.80;99.90;;;;;;4974314;28;20039;-82
2024/03/11 05:25:14;;;;;;;74.35;42.45;;;7.80;99.90;;;;;;4957732;28;20412;-82
2024/03/11 05:27:41;;;;;;;72.32;41.13;;;7.80;99.90;;;;;;4969880;28;20475;-82
2024/03/11 05:30:07;;;;;;;77.55;41.20;;;7.80;99.90;;;;;;4976092;28;20084;-82
2024/03/11 05:32:35;;;;;;;70.60;39.00;;;7.80;99.90;;;;;;4977449;28;20027;-82
2024/03/11 05:35:01;;;;;;;70.90;38.97;;;7.80;99.90;;;;;;5004209;28;20018;-82
2024/03/11 05:37:27;;;;;;;78.63;43.00;;;7.70;99.90;;;;;;4977240;28;20026;-82
2024/03/11 05:39:54;;;;;;;73.00;39.90;;;7.70;99.90;;;;;;4976464;28;20026;-82
2024/03/11 05:42:19;;;;;;;80.05;42.90;;;7.70;99.90;;;;;;4973610;28;20487;-82
2024/03/11 05:44:46;;;;;;;76.40;40.95;;;7.80;99.90;;;;;;4983334;28;20034;-82
2024/03/11 05:47:11;;;;;;;74.95;39.97;;;7.80;99.90;;;;;;4974407;28;20038;-81
2024/03/11 05:49:37;;;;;;;79.55;44.40;;;7.80;99.90;;;;;;4970295;28;20333;-81
2024/03/11 05:52:03;;;;;;;73.00;40.50;;;7.80;99.90;;;;;;4972287;28;20061;-81
2024/03/11 05:54:29;;;;;;;74.05;41.88;;;7.80;99.90;;;;;;4977827;28;20388;-81
2024/03/11 05:56:58;;;;;;;79.22;44.10;;;7.80;99.90;;;;;;4973561;28;20042;-81
2024/03/11 05:59:23;;;;;;;79.10;44.95;;;7.80;99.90;;;;;;4977609;28;20069;-81
2024/03/11 06:01:50;;;;;;;76.20;43.03;;;7.80;99.90;;;;;;4975943;28;20450;-81
2024/03/11 06:04:17;;;;;;;79.10;43.00;;;7.90;99.90;;;;;;4986094;28;20029;-81
2024/03/11 06:06:44;;;;;;;74.97;41.75;;;7.80;99.90;;;;;;4967595;28;20018;-81
2024/03/11 06:09:10;;;;;;;83.35;43.00;;;7.80;99.90;;;;;;4976352;28;20030;-81
2024/03/11 06:11:40;;;;;;;78.47;42.90;;;7.80;99.90;;;;;;4993511;28;20022;-82
2024/03/11 06:14:12;;;;;;;75.45;42.15;;;7.80;99.90;;;;;;4973327;28;20092;-82
2024/03/11 06:16:42;;;;;;;84.38;46.58;;;7.90;99.90;;;;;;4957212;28;20514;-81
2024/03/11 06:19:10;;;;;;;79.85;45.20;;;7.80;99.90;;;;;;4957893;28;20495;-82
2024/03/11 06:21:37;;;;;;;73.78;39.53;;;7.90;99.90;;;;;;4970497;28;20026;-81
2024/03/11 06:24:05;;;;;;;79.55;43.47;;;7.90;99.90;;;;;;4975342;28;20035;-81
2024/03/11 06:26:34;;;;;;;76.63;42.53;;;7.90;99.90;;;;;;4987612;28;20018;-82
2024/03/11 06:29:00;;;;;;;84.85;45.92;;;7.90;99.90;;;;;;4992167;28;20037;-83
2024/03/11 06:31:26;;;;;;;73.40;42.35;;;7.90;99.90;;;;;;4956669;28;20034;-82
2024/03/11 06:33:52;;;;;;;79.75;45.20;;;7.90;99.90;;;;;;4960139;28;20031;-83
2024/03/11 06:36:18;;;;;;;89.63;45.38;;;7.90;99.90;;;;;;4972554;28;20036;-82
2024/03/11 06:38:44;;;;;;;76.15;42.55;;;7.90;99.90;;;;;;4957067;28;20081;-82
2024/03/11 06:41:11;;;;;;;88.90;47.78;;;7.90;99.90;;;;;;4956620;28;20027;-82
2024/03/11 06:43:38;;;;;;;84.22;44.80;;;7.90;99.90;;;;;;4975404;28;20023;-82
2024/03/11 06:46:04;;;;;;;83.18;45.58;;;7.90;99.90;;;;;;4972061;28;20077;-82
2024/03/11 06:48:29;;;;;;;83.65;46.53;;;7.90;99.90;;;;;;4993738;28;20719;-82
2024/03/11 06:50:55;;;;;;;77.05;42.88;;;7.90;99.90;;;;;;4992668;28;20023;-82
2024/03/11 06:53:20;;;;;;;85.35;45.97;;;7.90;99.90;;;;;;4975679;28;20142;-82
2024/03/11 06:55:46;;;;;;;81.70;46.28;;;8.00;99.90;;;;;;4963660;28;20383;-82
2024/03/11 06:58:12;;;;;;;80.55;44.88;;;8.00;99.90;;;;;;4973381;28;20042;-82
2024/03/11 07:00:39;;;;;;;82.18;44.88;;;8.00;99.90;;;;;;4989148;28;20086;-81
2024/03/11 07:03:04;;;;;;;78.88;44.97;;;8.00;99.90;;;;;;4989146;28;20073;-82
2024/03/11 07:05:31;;;;;;;70.95;41.40;;;7.90;99.90;;;;;;4980775;28;20398;-82
2024/03/11 07:07:57;;;;;;;79.15;44.38;;;8.00;99.90;;;;;;4977364;28;20443;-83
2024/03/11 07:10:23;;;;;;;77.28;43.90;;;7.90;99.90;;;;;;4976255;28;20064;-82
2024/03/11 07:12:49;;;;;;;76.68;43.83;;;8.00;99.90;;;;;;4970246;28;20030;-83
2024/03/11 07:15:16;;;;;;;86.50;45.58;;;7.90;99.90;;;;;;4969072;28;20455;-83
2024/03/11 07:17:41;;;;;;;84.35;46.05;;;7.90;99.90;;;;;;4966200;28;20039;-83
2024/03/11 07:20:08;;;;;;;81.70;45.85;;;7.90;99.90;;;;;;4969013;28;20030;-83
2024/03/11 07:22:38;;;;;;;81.25;45.33;;;7.90;99.90;;;;;;4978577;28;20092;-82
2024/03/11 07:25:09;;;;;;;78.32;44.33;;;7.90;99.90;;;;;;4975711;28;20475;-82
2024/03/11 07:27:37;;;;;;;80.55;45.13;;;7.90;99.90;;;;;;4987318;28;20045;-80
2024/03/11 07:30:07;;;;;;;82.18;45.38;;;7.90;99.90;;;;;;4963326;28;20099;-82
2024/03/11 07:32:33;;;;;;;86.70;46.00;;;7.90;99.90;;;;;;4965121;28;20034;-82
2024/03/11 07:34:59;;;;;;;85.63;45.22;;;7.90;99.90;;;;;;4969960;28;20035;-82
2024/03/11 07:37:25;;;;;;;80.03;43.85;;;7.90;99.90;;;;;;4976147;28;20369;-82
2024/03/11 07:39:52;;;;;;;81.97;45.45;;;7.90;99.90;;;;;;4975007;28;20041;-82
2024/03/11 07:42:22;;;;;;;83.47;46.05;;;7.90;99.90;;;;;;4961419;28;20038;-83
2024/03/11 07:44:51;;;;;;;82.85;45.40;;;7.90;99.90;;;;;;4975157;28;20030;-83
2024/03/11 07:47:17;;;;;;;81.00;45.00;;;7.90;99.90;;;;;;4986187;28;20076;-82
2024/03/11 07:49:43;;;;;;;87.50;46.28;;;7.90;99.90;;;;;;4965969;28;20041;-82
2024/03/11 07:52:12;;;;;;;83.57;47.50;;;7.90;99.90;;;;;;4973523;28;20172;-82
2024/03/11 07:54:38;;;;;;;79.78;42.55;;;7.90;99.90;;;;;;4977346;28;20022;-83
2024/03/11 07:57:03;;;;;;;78.57;43.45;;;7.90;99.90;;;;;;4961779;28;20027;-82
2024/03/11 07:59:29;;;;;;;75.68;42.88;;;7.80;99.90;;;;;;4978596;28;20057;-83
2024/03/11 08:01:54;;;;;;;82.20;44.55;;;7.80;99.90;;;;;;4975238;28;20121;-83
2024/03/11 08:04:20;;;;;;;80.05;43.63;;;7.70;99.90;;;;;;4963249;28;20050;-84
2024/03/11 08:06:46;;;;;;;79.15;43.15;;;7.70;99.90;;;;;;4970952;28;23012;-84
2024/03/11 08:09:14;;;;;;;74.45;42.35;;;7.70;99.90;;;;;;4979798;28;20041;-84
2024/03/11 08:11:39;;;;;;;77.50;44.65;;;7.70;99.90;;;;;;4969993;28;20022;-84
2024/03/11 08:14:05;;;;;;;71.40;42.40;;;7.70;99.90;;;;;;4975732;28;20027;-84
2024/03/11 08:16:31;;;;;;;80.97;44.75;;;7.70;99.90;;;;;;4969307;28;20427;-83
2024/03/11 08:18:57;;;;;;;82.00;45.58;;;7.70;99.90;;;;;;4972283;28;20029;-82
2024/03/11 08:21:23;;;;;;;79.97;45.60;;;7.60;99.90;;;;;;4975690;28;20385;-83
2024/03/11 08:23:48;;;;;;;76.28;43.42;;;7.60;99.90;;;;;;4960469;28;20039;-82
2024/03/11 08:26:17;;;;;;;76.97;45.53;;;7.60;99.90;;;;;;4965873;28;20046;-82
2024/03/11 08:28:43;;;;;;;81.97;46.05;;;7.60;99.90;;;;;;4971941;28;20034;-83
2024/03/11 08:31:09;;;;;;;84.97;47.03;;;7.70;99.90;;;;;;4967067;28;20109;-81
2024/03/11 08:33:37;;;;;;;86.03;46.67;;;7.70;99.90;;;;;;4963122;28;20117;-82
2024/03/11 08:36:04;;;;;;;80.72;47.70;;;7.70;99.90;;;;;;4974490;28;20036;-83
2024/03/11 08:38:35;;;;;;;83.32;46.13;;;7.70;99.90;;;;;;4972278;28;20081;-83
2024/03/11 08:41:05;;;;;;;82.13;46.03;;;7.80;99.90;;;;;;4960777;28;20052;-83
2024/03/11 08:43:31;;;;;;;82.55;46.42;;;7.80;99.90;;;;;;4970558;28;20137;-83
2024/03/11 08:45:57;;;;;;;79.13;44.30;;;7.80;99.90;;;;;;4966608;28;20039;-82
2024/03/11 08:48:24;;;;;;;79.75;44.50;;;7.80;99.90;;;;;;4955447;28;20505;-84
2024/03/11 08:50:49;;;;;;;79.05;46.25;;;7.80;99.90;;;;;;4962099;28;20038;-84
2024/03/11 08:53:15;;;;;;;80.78;47.03;;;7.80;99.90;;;;;;4961468;28;20279;-83
2024/03/11 08:55:42;;;;;;;83.43;45.80;;;7.90;99.90;;;;;;4962961;28;20027;-83
2024/03/11 08:58:09;;;;;;;80.57;45.03;;;7.90;99.90;;;;;;4962601;28;20469;-84
2024/03/11 09:00:37;;;;;;;81.50;46.72;;;7.90;99.90;;;;;;4963670;28;20054;-82
2024/03/11 09:03:06;;;;;;;77.32;44.75;;;7.90;99.90;;;;;;4965697;28;20050;-83
2024/03/11 09:05:32;;;;;;;79.25;44.78;;;7.90;99.90;;;;;;4969149;28;20034;-84
2024/03/11 09:08:03;;;;;;;78.07;46.33;;;7.90;99.90;;;;;;4961584;28;20407;-84
2024/03/11 09:10:29;;;;;;;79.97;45.27;;;7.90;99.90;;;;;;4968582;28;20178;-83
2024/03/11 09:12:55;;;;;;;76.18;42.38;;;7.90;99.90;;;;;;4969951;28;20534;-84
2024/03/11 09:15:23;;;;;;;74.35;42.08;;;7.90;99.90;;;;;;4965485;28;20030;-83
2024/03/11 09:17:50;;;;;;;74.55;43.58;;;7.90;99.90;;;;;;4970827;28;20037;-83
2024/03/11 09:20:17;;;;;;;70.05;42.22;;;7.90;99.90;;;;;;4975063;28;20058;-83
2024/03/11 09:22:45;;;;;;;77.28;43.50;;;7.90;99.90;;;;;;4972757;28;20038;-83
2024/03/11 09:25:18;;;;;;;75.88;42.78;;;7.90;99.90;;;;;;4968523;28;20027;-84
2024/03/11 09:27:45;;;;;;;75.13;41.40;;;7.90;99.90;;;;;;4967620;28;20062;-84
2024/03/11 09:30:12;;;;;;;72.65;41.33;;;7.90;99.90;;;;;;4967570;28;20038;-84
2024/03/11 09:32:37;;;;;;;69.88;40.72;;;7.90;99.90;;;;;;4963253;28;20027;-83
2024/03/11 09:35:05;;;;;;;71.00;41.50;;;8.00;99.90;;;;;;4968343;28;20065;-84
2024/03/11 09:37:31;;;;;;;68.68;40.03;;;8.00;99.90;;;;;;4970099;28;20063;-84
2024/03/11 09:39:57;;;;;;;66.03;38.10;;;8.00;99.90;;;;;;4970017;28;20019;-83
2024/03/11 09:42:27;;;;;;;66.40;39.25;;;8.10;99.90;;;;;;4974142;28;20097;-84
2024/03/11 09:44:56;;;;;;;64.82;37.30;;;8.10;99.90;;;;;;4965648;28;20518;-84
2024/03/11 09:47:23;;;;;;;56.90;34.17;;;8.10;99.90;;;;;;4984647;28;20383;-83
2024/03/11 09:49:50;;;;;;;61.95;36.58;;;8.20;99.90;;;;;;4966225;28;20034;-83
2024/03/11 09:52:17;;;;;;;59.03;35.53;;;8.20;99.90;;;;;;4968256;28;20031;-82
2024/03/11 09:54:44;;;;;;;56.83;34.35;;;8.20;99.90;;;;;;4976759;28;20464;-83
2024/03/11 09:57:12;;;;;;;50.17;31.67;;;8.20;99.90;;;;;;4967097;28;20089;-83
2024/03/11 09:59:41;;;;;;;55.70;33.08;;;8.20;99.90;;;;;;4969683;28;20042;-83
2024/03/11 10:02:13;;;;;;;54.20;32.63;;;8.20;99.90;;;;;;4981146;28;20088;-83
2024/03/11 10:04:38;;;;;;;52.03;32.53;;;8.20;99.90;;;;;;4972396;28;20066;-83
2024/03/11 10:07:05;;;;;;;51.42;31.13;;;8.20;99.90;;;;;;4967018;28;20084;-83
2024/03/11 10:09:31;;;;;;;52.20;32.13;;;8.20;99.90;;;;;;4963584;28;20106;-83
2024/03/11 10:12:02;;;;;;;52.55;31.92;;;8.20;99.90;;;;;;4967537;28;20479;-83
2024/03/11 10:14:30;;;;;;;50.72;32.72;;;8.20;99.90;;;;;;4961030;28;20080;-83
2024/03/11 10:17:16;;;;;;;53.03;32.47;;;8.20;99.90;;;;;;4959038;28;20034;-84
2024/03/11 10:19:53;;;;;;;57.13;34.45;;;8.10;99.90;;;;;;4963361;28;20077;-82
2024/03/11 10:22:23;;;;;;;54.55;33.47;;;8.10;99.90;;;;;;4964906;28;20041;-83
2024/03/11 10:24:56;;;;;;;55.33;33.15;;;8.10;99.90;;;;;;4976112;28;20019;-83
2024/03/11 10:27:22;;;;;;;;;;;8.10;99.90;;;;;;4965396;28;20031;-82
2024/03/11 10:29:54;;;;;;;54.00;32.15;;;8.00;99.90;;;;;;4976853;28;20382;-83
2024/03/11 10:32:34;;;;;;;57.53;33.43;;;8.00;99.90;;;;;;4966543;28;20061;-83
2024/03/11 10:35:00;;;;;;;59.78;33.72;;;8.10;99.90;;;;;;4964026;28;20282;-83
2024/03/11 10:37:25;;;;;;;64.40;36.65;;;8.10;99.90;;;;;;4963435;28;20078;-82
2024/03/11 10:39:51;;;;;;;60.33;35.25;;;8.10;99.90;;;;;;4966355;28;20096;-82
2024/03/11 10:42:32;;;;;;;60.05;35.85;;;8.10;99.90;;;;;;4961260;28;20049;-83
2024/03/11 10:44:59;;;;;;;65.90;37.28;;;8.10;99.90;;;;;;4958848;28;20415;-83
2024/03/11 10:47:25;;;;;;;66.18;37.88;;;8.20;99.90;;;;;;4974726;28;20064;-82
2024/03/11 10:49:53;;;;;;;67.82;38.22;;;8.10;99.90;;;;;;4965850;28;20051;-83
2024/03/11 10:52:25;;;;;;;67.45;37.33;;;8.10;99.90;;;;;;4961453;28;20125;-83
2024/03/11 10:54:57;;;;;;;66.75;37.28;;;8.20;99.90;;;;;;4963589;28;20038;-82
2024/03/11 10:57:39;;;;;;;70.70;36.13;;;8.20;99.90;;;;;;4968908;28;20382;-82
2024/03/11 11:00:20;;;;;;;70.65;39.22;;;8.10;99.90;;;;;;4964617;28;20121;-83
2024/03/11 11:02:53;;;;;;;68.53;38.17;;;8.10;99.90;;;;;;4961224;28;20049;-83
2024/03/11 11:05:24;;;;;;;69.47;39.17;;;8.20;99.90;;;;;;4963350;28;20037;-83
2024/03/11 11:07:53;;;;;;;69.63;37.47;;;8.10;99.90;;;;;;4968810;28;20027;-83
2024/03/11 11:10:20;;;;;;;66.43;38.33;;;8.20;99.90;;;;;;4976202;28;20031;-83
2024/03/11 11:12:52;;;;;;;61.25;37.10;;;8.20;99.90;;;;;;4964965;28;20031;-83
2024/03/11 11:15:20;;;;;;;71.97;38.28;;;8.20;99.90;;;;;;4978766;28;20101;-83
2024/03/11 11:17:48;;;;;;;60.38;36.58;;;8.20;99.90;;;;;;4959688;28;20041;-83
2024/03/11 11:20:29;;;;;;;67.75;37.85;;;8.20;99.90;;;;;;4964234;28;22589;-83
2024/03/11 11:23:00;;;;;;;66.80;36.72;;;8.10;99.90;;;;;;4963462;28;20043;-83
2024/03/11 11:25:42;;;;;;;65.30;37.78;;;8.10;99.90;;;;;;4963223;28;20023;-83
2024/03/11 11:28:15;;;;;;;63.28;36.83;;;8.10;99.90;;;;;;4964837;28;20030;-83
2024/03/11 11:30:42;;;;;;;63.60;37.05;;;8.10;99.90;;;;;;4961562;28;20034;-84
2024/03/11 11:33:10;;;;;;;66.20;37.83;;;8.10;99.90;;;;;;4959175;28;20109;-83
2024/03/11 11:35:36;;;;;;;68.45;38.65;;;8.10;99.90;;;;;;4968038;28;20034;-83
2024/03/11 11:38:23;;;;;;;65.60;37.35;;;8.10;99.90;;;;;;4967675;28;20159;-84
2024/03/11 11:40:50;;;;;;;65.53;37.63;;;8.20;99.90;;;;;;4978258;28;20037;-84
2024/03/11 11:43:24;;;;;;;69.03;38.63;;;8.10;99.90;;;;;;4967393;28;20046;-83
2024/03/11 11:45:57;;;;;;;68.63;37.95;;;8.20;99.90;;;;;;4975525;28;20098;-84
2024/03/11 11:48:28;;;;;;;70.25;39.22;;;8.20;99.90;;;;;;4974160;28;20031;-84
2024/03/11 11:51:00;;;;;;;66.78;36.65;;;8.10;99.90;;;;;;4974746;28;20033;-83
2024/03/11 11:53:27;;;;;;;66.95;37.45;;;8.10;99.90;;;;;;4975193;28;20026;-83
2024/03/11 11:55:53;;;;;;;65.03;37.15;;;8.10;99.90;;;;;;4973890;28;20138;-83
2024/03/11 11:58:19;;;;;;;66.88;37.45;;;8.10;99.90;;;;;;4962352;28;21811;-82
2024/03/11 12:00:44;;;;;;;67.38;37.35;;;8.10;99.90;;;;;;4975063;28;20057;-82
2024/03/11 12:03:27;;;;;;;68.05;37.95;;;8.10;99.90;;;;;;4978342;28;20038;-82
2024/03/11 12:06:19;;;;;;;;;;;8.10;99.90;;;;;;4982488;28;20121;-82
2024/03/11 12:08:47;;;;;;;60.53;34.47;;;8.10;99.90;;;;;;4969699;28;19945;-83
2024/03/11 12:11:15;;;;;;;70.35;37.72;;;8.10;99.90;;;;;;4961775;28;20045;-82
2024/03/11 12:13:43;;;;;;;67.72;37.35;;;8.10;99.90;;;;;;4975460;28;20113;-83
2024/03/11 12:16:10;;;;;;;71.05;38.78;;;8.10;99.90;;;;;;4979238;28;20030;-83
2024/03/11 12:18:42;;;;;;;71.15;38.00;;;8.10;99.90;;;;;;4965639;28;20067;-82
2024/03/11 12:21:14;;;;;;;70.05;37.60;;;8.20;99.90;;;;;;4975360;28;20030;-83
2024/03/11 12:23:43;;;;;;;63.63;37.20;;;8.20;99.90;;;;;;4970297;28;20034;-83
2024/03/11 12:26:09;;;;;;;71.50;38.17;;;8.20;99.90;;;;;;4961921;28;20086;-82
2024/03/11 12:28:37;;;;;;;71.10;39.05;;;8.20;99.90;;;;;;4979197;28;20061;-83
2024/03/11 12:31:05;;;;;;;76.30;42.20;;;8.20;99.90;;;;;;4979013;28;20026;-83
2024/03/11 12:33:34;;;;;;;77.72;39.72;;;8.20;99.90;;;;;;4978430;28;20018;-83
2024/03/11 12:36:02;;;;;;;74.72;39.40;;;8.20;99.90;;;;;;4977497;28;20034;-83
2024/03/11 12:38:29;;;;;;;70.80;39.95;;;8.30;99.90;;;;;;4995804;28;20022;-83
2024/03/11 12:40:57;;;;;;;70.00;38.00;;;8.30;99.90;;;;;;4978248;28;20054;-83